Alexandria, Alabama
Current Conditions -  °F | °C
As of 5:53 PM on Wednesday 26 Nov 2014 (Local Time) from KANB Reporting Station
Overcast Overcast  
Wind Chill: 51°   Ceiling: 11000
Heat Index: 51°   Visibility: 10mi
Dew Point: 29°   Wind: 5mph
Humidity: 43%   Direction: 260°W
Pressure: 30.07"   Gusts: NA
Location:  33.77°N, 85.89°W
Report Text: KANB 262353Z AUTO 26004KT 10SM OVC110 11/M02 A3007 RMK AO2 SLP189 T01061017 10139 20106 55004
Loading
Personal Weather Stations






























Interactive Weather Map New forecast layout! Learn more

10-Day Weather Forecast

Advertisements
Track Severe Weather on mobile